Time;durP1;ratioP1;P1;durP2;ratioP2;P2;SDS_P1;SDS_P2;PMS_P1;PMS_P2;Temp;Humidity;BMP_temperature;BMP_pressure;BME280_temperature;BME280_humidity;BME280_pressure;Samples;Min_cycle;Max_cycle;Signal;HPM_P1;HPM_P2
2022/12/18 00:01:13;;;;;;;64.50;27.55;;;-1.20;99.90;;;;;;4996707;28;20363;-82
2022/12/18 00:03:39;;;;;;;64.47;27.63;;;-1.20;99.90;;;;;;5012750;28;20057;-82
2022/12/18 00:06:04;;;;;;;63.38;29.48;;;-1.20;99.90;;;;;;5012885;28;20493;-81
2022/12/18 00:08:30;;;;;;;65.20;28.92;;;-1.20;99.90;;;;;;4996232;28;20497;-82
2022/12/18 00:11:07;;;;;;;62.53;29.63;;;-1.20;99.90;;;;;;5013841;28;20384;-82
2022/12/18 00:13:33;;;;;;;61.25;27.88;;;-1.20;99.90;;;;;;5013930;28;20036;-84
2022/12/18 00:16:06;;;;;;;62.22;27.30;;;-1.20;99.90;;;;;;4996467;28;20034;-84
2022/12/18 00:18:32;;;;;;;62.58;27.73;;;-1.20;99.90;;;;;;5012785;28;20370;-84
2022/12/18 00:21:00;;;;;;;58.42;26.42;;;-1.30;99.90;;;;;;5013665;28;20459;-84
2022/12/18 00:23:30;;;;;;;64.22;27.95;;;-1.30;99.90;;;;;;5012472;28;20072;-84
2022/12/18 00:26:04;;;;;;;65.85;26.20;;;-1.30;99.90;;;;;;5012391;28;20026;-84
2022/12/18 00:28:31;;;;;;;66.28;27.95;;;-1.30;99.90;;;;;;5013750;28;20536;-84
2022/12/18 00:31:08;;;;;;;68.95;28.50;;;-1.30;99.90;;;;;;5012901;28;20036;-85
2022/12/18 00:33:35;;;;;;;59.85;26.77;;;-1.30;99.90;;;;;;5012828;28;20030;-85
2022/12/18 00:36:05;;;;;;;60.50;29.30;;;-1.30;99.90;;;;;;5014138;28;20029;-85
2022/12/18 00:38:30;;;;;;;56.47;25.27;;;-1.30;99.90;;;;;;5012772;28;20029;-85
2022/12/18 00:40:57;;;;;;;58.30;28.73;;;-1.40;99.90;;;;;;4996177;28;20400;-84
2022/12/18 00:43:22;;;;;;;57.40;26.10;;;-1.40;99.90;;;;;;5012720;28;20474;-85
2022/12/18 00:45:48;;;;;;;58.28;26.90;;;-1.40;99.90;;;;;;4980119;28;20033;-85
2022/12/18 00:48:14;;;;;;;52.28;24.50;;;-1.40;99.90;;;;;;5012398;28;20428;-82
2022/12/18 00:50:40;;;;;;;55.67;25.83;;;-1.50;99.90;;;;;;5012184;28;20475;-82
2022/12/18 00:53:06;;;;;;;55.65;25.25;;;-1.50;99.90;;;;;;5012213;28;20172;-81
2022/12/18 00:55:31;;;;;;;51.88;24.00;;;-1.50;99.90;;;;;;4995994;28;20084;-81
2022/12/18 00:57:57;;;;;;;56.72;26.55;;;-1.60;99.90;;;;;;5012401;28;20030;-81
2022/12/18 01:00:23;;;;;;;55.42;26.25;;;-1.50;99.90;;;;;;4995817;28;20112;-82
2022/12/18 01:02:49;;;;;;;53.95;26.08;;;-1.60;99.90;;;;;;4995860;28;20022;-82
2022/12/18 01:05:14;;;;;;;47.63;23.30;;;-1.60;99.90;;;;;;4995941;28;20113;-85
2022/12/18 01:07:43;;;;;;;50.72;25.20;;;-1.60;99.90;;;;;;5012402;28;20483;-85
2022/12/18 01:10:12;;;;;;;52.67;24.52;;;-1.60;99.90;;;;;;4996253;28;20045;-85
2022/12/18 01:12:38;;;;;;;48.65;24.08;;;-1.60;99.90;;;;;;5012097;28;20030;-85
2022/12/18 01:15:09;;;;;;;43.97;22.92;;;-1.60;99.90;;;;;;5012116;28;20026;-85
2022/12/18 01:17:35;;;;;;;;;;;-1.70;99.90;;;;;;5012638;28;20114;-85
2022/12/18 01:20:01;;;;;;;49.70;22.90;;;-1.60;99.90;;;;;;5002621;28;20001;-82
2022/12/18 01:22:29;;;;;;;53.30;25.50;;;-1.70;99.90;;;;;;4995670;28;20124;-82
2022/12/18 01:24:55;;;;;;;49.92;23.98;;;-1.70;99.90;;;;;;4995588;28;20034;-82
2022/12/18 01:27:21;;;;;;;50.22;24.10;;;-1.70;99.90;;;;;;5012324;28;20076;-82
2022/12/18 01:29:46;;;;;;;49.13;24.25;;;-1.70;99.90;;;;;;5011862;28;20025;-82
2022/12/18 01:32:12;;;;;;;47.95;23.80;;;-1.70;99.90;;;;;;5013026;28;20125;-82
2022/12/18 01:34:38;;;;;;;51.42;24.05;;;-1.80;99.90;;;;;;4995675;28;20064;-82
2022/12/18 01:37:04;;;;;;;52.00;25.55;;;-1.70;99.90;;;;;;4997496;28;20447;-82
2022/12/18 01:39:33;;;;;;;47.97;23.90;;;-1.80;99.90;;;;;;5014921;28;20057;-82
2022/12/18 01:42:04;;;;;;;52.45;25.30;;;-1.80;99.90;;;;;;5015221;28;20120;-82
2022/12/18 01:44:51;;;;;;;49.88;26.45;;;-1.80;99.90;;;;;;5016477;28;20038;-82
2022/12/18 01:47:36;;;;;;;47.90;24.10;;;-1.80;99.90;;;;;;5015060;28;20026;-82
2022/12/18 01:50:11;;;;;;;50.10;23.67;;;-1.80;99.90;;;;;;5016420;28;20034;-82
2022/12/18 01:52:40;;;;;;;50.30;24.92;;;-1.80;99.90;;;;;;5014843;28;20056;-81
2022/12/18 01:55:09;;;;;;;50.50;23.38;;;-1.90;99.90;;;;;;5015398;28;20076;-82
2022/12/18 01:57:35;;;;;;;50.35;22.83;;;-1.90;99.90;;;;;;4999032;28;20030;-82
2022/12/18 02:00:09;;;;;;;51.45;24.45;;;-1.90;99.90;;;;;;5015651;28;20026;-82
2022/12/18 02:02:35;;;;;;;45.08;23.75;;;-1.90;99.90;;;;;;5016456;28;20032;-82
2022/12/18 02:05:02;;;;;;;46.25;23.10;;;-1.90;99.90;;;;;;5016270;28;20449;-82
2022/12/18 02:07:43;;;;;;;47.05;22.55;;;-1.90;99.90;;;;;;5015005;28;20116;-82
2022/12/18 02:10:11;;;;;;;46.75;23.13;;;-2.00;99.90;;;;;;5015003;28;20030;-84
2022/12/18 02:12:44;;;;;;;41.25;20.60;;;-2.00;99.90;;;;;;5015885;28;20022;-83
2022/12/18 02:15:21;;;;;;;50.08;22.33;;;-2.00;99.90;;;;;;5014660;28;20030;-84
2022/12/18 02:18:21;;;;;;;45.55;22.38;;;-2.00;99.90;;;;;;5014590;28;20014;-84
2022/12/18 02:21:04;;;;;;;46.60;22.67;;;-2.00;99.90;;;;;;4973790;28;20072;-84
2022/12/18 02:23:52;;;;;;;42.60;20.67;;;-2.00;99.90;;;;;;5015888;28;20091;-84
2022/12/18 02:26:24;;;;;;;44.90;21.83;;;-2.00;99.90;;;;;;5014567;28;20052;-84
2022/12/18 02:29:05;;;;;;;43.22;21.30;;;-2.00;99.90;;;;;;5015766;28;20478;-82
2022/12/18 02:31:40;;;;;;;45.25;22.63;;;-2.10;99.90;;;;;;5014519;28;20030;-82
2022/12/18 02:34:08;;;;;;;43.38;20.95;;;-2.10;99.90;;;;;;5014275;28;20116;-82
2022/12/18 02:36:38;;;;;;;40.67;20.15;;;-2.10;99.90;;;;;;5014331;28;20029;-82
2022/12/18 02:39:07;;;;;;;42.42;22.13;;;-2.10;99.90;;;;;;5015463;28;20018;-82
2022/12/18 02:41:33;;;;;;;37.47;19.73;;;-2.10;99.90;;;;;;5013996;28;20046;-82
2022/12/18 02:44:06;;;;;;;39.83;19.73;;;-2.10;99.90;;;;;;5014106;28;20441;-84
2022/12/18 02:46:37;;;;;;;43.30;21.38;;;-2.20;99.90;;;;;;5014010;28;20022;-85
2022/12/18 02:49:14;;;;;;;39.63;21.48;;;-2.20;99.90;;;;;;5013883;28;20026;-84
2022/12/18 02:52:12;;;;;;;41.88;20.75;;;-2.20;99.90;;;;;;5015351;28;20030;-84
2022/12/18 02:55:00;;;;;;;35.03;18.40;;;-2.20;99.90;;;;;;5015307;28;20029;-84
2022/12/18 02:57:48;;;;;;;44.45;20.85;;;-2.30;99.90;;;;;;5013894;28;20401;-84
2022/12/18 03:00:24;;;;;;;39.65;19.80;;;-2.30;99.90;;;;;;5015255;28;20026;-82
2022/12/18 03:03:20;;;;;;;36.20;19.08;;;-2.30;99.90;;;;;;5015124;28;20391;-82
2022/12/18 03:06:04;;;;;;;40.03;20.33;;;-2.30;99.90;;;;;;5007051;28;20026;-82
2022/12/18 03:08:38;;;;;;;38.60;18.30;;;-2.30;99.90;;;;;;4994061;28;20026;-82
2022/12/18 03:11:09;;;;;;;43.08;19.45;;;-2.30;99.90;;;;;;4994324;28;20112;-82
2022/12/18 03:13:44;;;;;;;39.75;19.50;;;-2.40;99.90;;;;;;4995172;28;20049;-82
2022/12/18 03:16:15;;;;;;;40.22;19.20;;;-2.40;99.90;;;;;;4993884;28;20022;-82
2022/12/18 03:18:52;;;;;;;43.15;19.08;;;-2.40;99.90;;;;;;4995820;28;20053;-81
2022/12/18 03:21:24;;;;;;;38.75;19.75;;;-2.40;99.90;;;;;;4995730;28;20098;-81
2022/12/18 03:23:51;;;;;;;41.00;19.23;;;-2.40;99.90;;;;;;4994407;28;20430;-81
2022/12/18 03:26:23;;;;;;;40.92;19.48;;;-2.40;99.90;;;;;;4994332;28;20050;-81
2022/12/18 03:28:57;;;;;;;40.10;19.83;;;-2.40;99.90;;;;;;4995471;28;20018;-81
2022/12/18 03:31:23;;;;;;;42.58;20.58;;;-2.50;99.90;;;;;;4994312;28;20027;-81
2022/12/18 03:33:55;;;;;;;39.33;18.77;;;-2.50;99.90;;;;;;4995228;28;20027;-84
2022/12/18 03:36:22;;;;;;;41.13;20.33;;;-2.50;99.90;;;;;;4993791;28;20077;-85
2022/12/18 03:38:48;;;;;;;37.53;17.80;;;-2.50;99.90;;;;;;4993916;28;20018;-84
2022/12/18 03:41:43;;;;;;;34.92;17.67;;;-2.50;99.90;;;;;;4977267;28;20496;-84
2022/12/18 03:44:23;;;;;;;41.42;20.38;;;-2.50;99.90;;;;;;4993781;28;20030;-84
2022/12/18 03:47:30;;;;;;;40.85;18.90;;;-2.60;99.90;;;;;;4994092;28;20468;-84
2022/12/18 03:50:17;;;;;;;35.85;18.38;;;-2.60;99.90;;;;;;4973827;28;20054;-84
2022/12/18 03:52:57;;;;;;;42.88;20.10;;;-2.60;99.90;;;;;;4957088;28;20045;-85
2022/12/18 03:55:24;;;;;;;38.67;18.48;;;-2.60;99.90;;;;;;4989177;28;20050;-85
2022/12/18 03:57:53;;;;;;;37.97;18.65;;;-2.60;99.90;;;;;;4994569;28;20486;-85
2022/12/18 04:00:20;;;;;;;38.25;18.75;;;-2.60;99.90;;;;;;4992910;28;20029;-85
2022/12/18 04:02:57;;;;;;;38.15;17.77;;;-2.70;99.90;;;;;;4994608;28;20080;-85
2022/12/18 04:05:25;;;;;;;36.72;17.60;;;-2.70;99.90;;;;;;4994465;28;20081;-85
2022/12/18 04:07:52;;;;;;;38.10;17.33;;;-2.70;99.90;;;;;;4994480;28;20449;-82
2022/12/18 04:10:18;;;;;;;32.25;16.58;;;-2.70;99.90;;;;;;4993171;28;20484;-83
2022/12/18 04:12:44;;;;;;;43.35;16.30;;;-2.70;99.90;;;;;;4976912;28;20057;-82
2022/12/18 04:15:12;;;;;;;34.90;17.20;;;-2.70;99.90;;;;;;4993316;28;20065;-83
2022/12/18 04:17:38;;;;;;;31.40;16.42;;;-2.70;99.90;;;;;;4994309;28;20069;-83
2022/12/18 04:20:05;;;;;;;34.28;16.50;;;-2.80;99.90;;;;;;4994929;28;20037;-82
2022/12/18 04:22:30;;;;;;;36.22;16.38;;;-2.70;99.90;;;;;;4993021;28;20030;-85
2022/12/18 04:24:56;;;;;;;33.58;15.95;;;-2.80;99.90;;;;;;4992931;28;20031;-85
2022/12/18 04:27:22;;;;;;;28.00;15.07;;;-2.80;99.90;;;;;;4993129;28;20034;-85
2022/12/18 04:29:47;;;;;;;31.42;15.07;;;-2.80;99.90;;;;;;4993229;28;20030;-83
2022/12/18 04:32:13;;;;;;;31.73;15.57;;;-2.80;99.90;;;;;;4994100;28;20157;-83
2022/12/18 04:34:38;;;;;;;33.25;15.23;;;-2.80;99.90;;;;;;4993061;28;20842;-83
2022/12/18 04:37:04;;;;;;;29.10;15.15;;;-2.80;99.90;;;;;;4992851;28;20129;-82
2022/12/18 04:39:30;;;;;;;33.88;15.23;;;-2.90;99.90;;;;;;4993939;28;20035;-82
2022/12/18 04:41:56;;;;;;;28.63;15.40;;;-2.90;99.90;;;;;;4993240;28;20054;-83
2022/12/18 04:44:21;;;;;;;36.75;16.15;;;-2.80;99.90;;;;;;4977130;28;20042;-83
2022/12/18 04:46:47;;;;;;;28.25;14.57;;;-2.90;99.90;;;;;;4993600;28;20022;-83
2022/12/18 04:49:13;;;;;;;30.65;15.13;;;-2.90;99.90;;;;;;4993982;28;20033;-84
2022/12/18 04:51:39;;;;;;;29.33;14.30;;;-2.90;99.90;;;;;;4994161;28;20031;-84
2022/12/18 04:54:05;;;;;;;29.15;13.68;;;-2.90;99.90;;;;;;4993821;28;20406;-84
2022/12/18 04:56:31;;;;;;;31.65;14.43;;;-2.90;99.90;;;;;;4994736;28;20038;-80
2022/12/18 04:58:57;;;;;;;24.98;13.50;;;-2.90;99.90;;;;;;4994180;28;20033;-81
2022/12/18 05:01:23;;;;;;;30.90;14.75;;;-2.90;99.90;;;;;;4993898;28;20034;-82
2022/12/18 05:03:48;;;;;;;28.10;14.27;;;-3.00;99.90;;;;;;4993886;28;20072;-81
2022/12/18 05:06:14;;;;;;;28.10;14.73;;;-3.00;99.90;;;;;;4992551;28;20130;-81
2022/12/18 05:08:40;;;;;;;31.88;14.10;;;-3.00;99.90;;;;;;4993876;28;20035;-82
2022/12/18 05:11:12;;;;;;;26.05;13.25;;;-3.00;99.90;;;;;;4992976;28;20160;-81
2022/12/18 05:13:38;;;;;;;25.70;14.02;;;-2.90;99.90;;;;;;4996165;28;20026;-83
2022/12/18 05:16:04;;;;;;;25.92;13.25;;;-3.00;99.90;;;;;;4996704;28;20029;-81
2022/12/18 05:18:30;;;;;;;28.73;13.48;;;-3.00;99.90;;;;;;4996422;28;20391;-81
2022/12/18 05:20:56;;;;;;;25.00;14.77;;;-3.00;99.90;;;;;;5005113;28;20164;-81
2022/12/18 05:23:23;;;;;;;28.48;14.00;;;-3.00;99.90;;;;;;5017081;28;20032;-81
2022/12/18 05:25:54;;;;;;;28.33;13.60;;;-3.10;99.90;;;;;;5015740;28;20036;-82
2022/12/18 05:28:21;;;;;;;30.67;14.13;;;-3.10;99.90;;;;;;5016850;28;20041;-82
2022/12/18 05:30:51;;;;;;;26.92;13.48;;;-3.10;99.90;;;;;;5017428;28;20414;-84
2022/12/18 05:33:17;;;;;;;27.05;13.32;;;-3.10;99.90;;;;;;5015636;28;20030;-84
2022/12/18 05:35:43;;;;;;;28.90;13.27;;;-3.10;99.90;;;;;;4999368;28;20415;-84
2022/12/18 05:38:09;;;;;;;27.52;14.10;;;-3.10;99.90;;;;;;5015555;28;20034;-84
2022/12/18 05:40:34;;;;;;;30.20;12.70;;;-3.10;99.90;;;;;;5016563;28;20046;-84
2022/12/18 05:43:00;;;;;;;29.17;13.45;;;-3.10;99.90;;;;;;5015142;28;20038;-84
2022/12/18 05:45:26;;;;;;;26.30;13.13;;;-3.10;99.90;;;;;;5015527;28;20105;-84
2022/12/18 05:47:51;;;;;;;26.42;13.20;;;-3.10;99.90;;;;;;4999166;28;20026;-84
2022/12/18 05:50:17;;;;;;;30.65;13.05;;;-3.10;99.90;;;;;;4999011;28;20064;-84
2022/12/18 05:52:43;;;;;;;26.48;13.73;;;-3.10;99.90;;;;;;4998863;28;20128;-84
2022/12/18 05:55:08;;;;;;;24.33;12.73;;;-3.10;99.90;;;;;;4998815;28;20037;-84
2022/12/18 05:57:34;;;;;;;25.27;11.88;;;-3.20;99.90;;;;;;4998724;28;20092;-84
2022/12/18 06:00:00;;;;;;;22.98;12.38;;;-3.20;99.90;;;;;;4998713;28;20033;-84
2022/12/18 06:02:25;;;;;;;27.33;12.38;;;-3.20;99.90;;;;;;5015105;28;20029;-83
2022/12/18 06:04:51;;;;;;;23.67;12.02;;;-3.20;99.90;;;;;;4999047;28;20128;-84
2022/12/18 06:07:17;;;;;;;25.00;12.77;;;-3.20;99.90;;;;;;5015819;28;20049;-84
2022/12/18 06:09:43;;;;;;;21.80;11.55;;;-3.20;99.90;;;;;;4999887;28;20026;-84
2022/12/18 06:12:09;;;;;;;23.20;12.13;;;-3.20;99.90;;;;;;5016673;28;20018;-84
2022/12/18 06:14:35;;;;;;;23.58;11.43;;;-3.20;99.90;;;;;;4999268;28;20030;-84
2022/12/18 06:17:00;;;;;;;22.58;11.85;;;-3.30;99.90;;;;;;4999251;28;20041;-84
2022/12/18 06:19:26;;;;;;;24.58;11.93;;;-3.20;99.90;;;;;;4999803;28;20030;-83
2022/12/18 06:22:11;;;;;;;26.67;12.52;;;-3.20;99.90;;;;;;5014270;28;20022;-82
2022/12/18 06:24:37;;;;;;;22.80;11.82;;;-3.20;99.90;;;;;;5016484;28;20030;-82
2022/12/18 06:27:03;;;;;;;25.17;12.00;;;-3.20;99.90;;;;;;5015689;28;20060;-82
2022/12/18 06:29:29;;;;;;;23.85;12.02;;;-3.20;99.90;;;;;;5014362;28;20117;-82
2022/12/18 06:31:54;;;;;;;23.98;12.68;;;-3.20;99.90;;;;;;4998020;28;20041;-81
2022/12/18 06:34:20;;;;;;;24.92;12.65;;;-3.20;99.90;;;;;;5014332;28;20034;-81
2022/12/18 06:36:46;;;;;;;23.85;12.40;;;-3.20;99.90;;;;;;5015513;28;20470;-80
2022/12/18 06:39:11;;;;;;;23.35;12.15;;;-3.20;99.90;;;;;;5014211;28;20117;-79
2022/12/18 06:41:37;;;;;;;22.35;12.45;;;-3.20;99.90;;;;;;4997817;28;20519;-81
2022/12/18 06:44:03;;;;;;;23.08;11.30;;;-3.20;99.90;;;;;;4998173;28;20030;-80
2022/12/18 06:46:29;;;;;;;24.95;12.40;;;-3.20;99.90;;;;;;4997862;28;20552;-80
2022/12/18 06:48:54;;;;;;;28.38;12.95;;;-3.20;99.90;;;;;;5015871;28;20026;-80
2022/12/18 06:51:22;;;;;;;24.73;11.63;;;-3.20;99.90;;;;;;5014096;28;20062;-81
2022/12/18 06:53:47;;;;;;;20.15;11.70;;;-3.20;99.90;;;;;;5014191;28;20026;-82
2022/12/18 06:56:13;;;;;;;23.17;11.57;;;-3.20;99.90;;;;;;4997759;28;20022;-80
2022/12/18 06:58:39;;;;;;;23.33;12.88;;;-3.20;99.90;;;;;;5015256;28;20034;-80
2022/12/18 07:01:08;;;;;;;22.50;11.95;;;-3.20;99.90;;;;;;4997718;28;20025;-84
2022/12/18 07:03:34;;;;;;;27.15;13.52;;;-3.20;99.90;;;;;;5013580;28;20091;-84
2022/12/18 07:05:59;;;;;;;25.90;13.55;;;-3.20;99.90;;;;;;5015146;28;20029;-80
2022/12/18 07:08:25;;;;;;;22.95;13.10;;;-3.30;99.90;;;;;;5013753;28;20030;-80
2022/12/18 07:10:52;;;;;;;26.80;12.35;;;-3.20;99.90;;;;;;5003207;28;20030;-84
2022/12/18 07:13:18;;;;;;;22.00;11.65;;;-3.30;99.90;;;;;;4978299;28;20022;-84
2022/12/18 07:15:44;;;;;;;22.67;12.25;;;-3.30;99.90;;;;;;4994475;28;20030;-84
2022/12/18 07:18:10;;;;;;;24.67;12.68;;;-3.30;99.90;;;;;;4995354;28;20054;-85
2022/12/18 07:20:36;;;;;;;22.75;12.48;;;-3.20;99.90;;;;;;4977872;28;20030;-85
2022/12/18 07:23:05;;;;;;;25.00;12.90;;;-3.20;99.90;;;;;;4995305;28;20494;-85
2022/12/18 07:25:35;;;;;;;21.92;12.43;;;-3.30;99.90;;;;;;4993923;28;20034;-84
2022/12/18 07:28:01;;;;;;;25.17;13.50;;;-3.30;99.90;;;;;;4993907;28;20027;-81
2022/12/18 07:30:27;;;;;;;22.35;12.80;;;-3.30;99.90;;;;;;4993808;28;20050;-81
2022/12/18 07:32:52;;;;;;;27.42;13.88;;;-3.30;99.90;;;;;;4995099;28;20113;-81
2022/12/18 07:35:18;;;;;;;23.40;13.30;;;-3.30;99.90;;;;;;4993078;28;20038;-80
2022/12/18 07:37:44;;;;;;;23.35;13.25;;;-3.20;99.90;;;;;;4993730;28;20074;-81
2022/12/18 07:40:10;;;;;;;23.00;13.18;;;-3.30;99.90;;;;;;4977389;28;20121;-81
2022/12/18 07:42:36;;;;;;;21.90;12.05;;;-3.30;99.90;;;;;;4993663;28;20026;-81
2022/12/18 07:45:03;;;;;;;23.77;11.70;;;-3.20;99.90;;;;;;4977432;28;20057;-84
2022/12/18 07:47:29;;;;;;;23.55;11.95;;;-3.30;99.90;;;;;;4999300;28;20049;-84
2022/12/18 07:49:55;;;;;;;22.55;12.88;;;-3.30;99.90;;;;;;4996773;28;20037;-84
2022/12/18 07:52:21;;;;;;;22.50;12.02;;;-3.30;99.90;;;;;;5013126;28;20030;-84
2022/12/18 07:54:49;;;;;;;22.17;11.13;;;-3.30;99.90;;;;;;5013342;28;20026;-84
2022/12/18 07:57:16;;;;;;;20.33;11.32;;;-3.20;99.90;;;;;;5013035;28;20022;-84
2022/12/18 07:59:41;;;;;;;24.45;11.55;;;-3.20;99.90;;;;;;5013033;28;20024;-84
2022/12/18 08:02:07;;;;;;;21.90;10.82;;;-3.30;99.90;;;;;;5013290;28;20487;-84
2022/12/18 08:04:33;;;;;;;20.92;10.68;;;-3.30;99.90;;;;;;5013012;28;20030;-84
2022/12/18 08:06:58;;;;;;;23.23;11.15;;;-3.30;99.90;;;;;;4996480;28;20034;-84
2022/12/18 08:09:24;;;;;;;18.63;10.13;;;-3.30;99.90;;;;;;5012870;28;20040;-83
2022/12/18 08:11:50;;;;;;;20.30;10.90;;;-3.20;99.90;;;;;;5013000;28;20038;-84
2022/12/18 08:14:15;;;;;;;20.65;10.57;;;-3.20;99.90;;;;;;4996435;28;20030;-85
2022/12/18 08:16:41;;;;;;;23.15;11.48;;;-3.20;99.90;;;;;;5012675;28;20030;-84
2022/12/18 08:19:07;;;;;;;22.17;11.23;;;-3.20;99.90;;;;;;5012824;28;20490;-84
2022/12/18 08:21:32;;;;;;;21.35;11.02;;;-3.10;99.90;;;;;;5012520;28;20026;-81
2022/12/18 08:24:00;;;;;;;18.70;11.48;;;-3.10;99.90;;;;;;4996418;28;20038;-81
2022/12/18 08:26:28;;;;;;;23.20;12.15;;;-3.10;99.90;;;;;;5012473;28;20021;-81
2022/12/18 08:28:56;;;;;;;21.85;11.38;;;-3.00;99.90;;;;;;5013814;28;20029;-81
2022/12/18 08:31:22;;;;;;;20.40;11.63;;;-3.00;99.90;;;;;;5013825;28;20083;-85
2022/12/18 08:33:52;;;;;;;19.67;10.73;;;-3.00;99.90;;;;;;5012470;28;20026;-82
2022/12/18 08:36:18;;;;;;;19.92;10.18;;;-2.90;99.90;;;;;;5013877;28;20018;-82
2022/12/18 08:38:44;;;;;;;17.77;9.85;;;-2.90;99.90;;;;;;5012550;28;20057;-83
2022/12/18 08:41:12;;;;;;;20.77;10.05;;;-2.90;99.90;;;;;;5012505;28;20081;-84
2022/12/18 08:46:25;;;;;;;19.95;10.18;;;-2.80;99.90;;;;;;5001967;28;20434;-84
2022/12/18 08:48:51;;;;;;;16.92;9.32;;;-2.80;99.90;;;;;;4998249;28;20427;-84
2022/12/18 08:51:17;;;;;;;18.42;9.48;;;-2.70;99.90;;;;;;4997037;28;20372;-80
2022/12/18 08:53:44;;;;;;;19.95;9.02;;;-2.60;99.90;;;;;;4999626;28;20031;-81
2022/12/18 08:56:13;;;;;;;18.33;9.35;;;-2.70;99.90;;;;;;5015857;28;20034;-80
2022/12/18 08:58:39;;;;;;;15.95;8.38;;;-2.60;99.90;;;;;;5016402;28;20113;-80
2022/12/18 09:01:07;;;;;;;17.45;9.50;;;-2.60;99.90;;;;;;5011513;28;20121;-80
2022/12/18 09:03:33;;;;;;;17.33;9.45;;;-2.50;99.90;;;;;;4997252;28;20014;-81
2022/12/18 09:05:59;;;;;;;16.48;8.15;;;-2.40;99.90;;;;;;4996427;28;20379;-81
2022/12/18 09:08:25;;;;;;;16.23;8.40;;;-2.40;99.90;;;;;;4997970;28;20387;-83
2022/12/18 09:10:51;;;;;;;16.08;9.40;;;-2.50;99.90;;;;;;4996766;28;20030;-83
2022/12/18 09:13:18;;;;;;;15.82;8.30;;;-2.40;99.90;;;;;;4996793;28;20038;-83
2022/12/18 09:16:03;;;;;;;19.20;9.07;;;-2.40;99.90;;;;;;4996523;28;20414;-84
2022/12/18 09:18:29;;;;;;;15.27;7.75;;;-2.30;99.90;;;;;;4996651;28;20039;-84
2022/12/18 09:20:54;;;;;;;16.98;8.23;;;-2.30;99.90;;;;;;4996606;28;20042;-84
2022/12/18 09:23:21;;;;;;;17.48;8.80;;;-2.30;99.90;;;;;;4980157;28;20037;-85
2022/12/18 09:25:47;;;;;;;15.80;8.38;;;-2.20;99.90;;;;;;4980067;28;20027;-85
2022/12/18 09:28:14;;;;;;;13.45;7.65;;;-2.20;99.90;;;;;;4997605;28;20034;-84
2022/12/18 09:30:50;;;;;;;15.45;7.78;;;-2.20;99.90;;;;;;4996271;28;20026;-85
2022/12/18 09:33:17;;;;;;;17.10;8.10;;;-2.20;99.90;;;;;;4996315;28;20034;-85
2022/12/18 09:35:44;;;;;;;17.92;8.18;;;-2.10;99.90;;;;;;5008475;28;20036;-85
2022/12/18 09:38:16;;;;;;;15.70;7.97;;;-2.10;99.90;;;;;;4997497;28;20037;-84
2022/12/18 09:40:49;;;;;;;20.25;8.52;;;-2.00;99.90;;;;;;5006309;28;20038;-86
2022/12/18 09:43:24;;;;;;;15.35;8.35;;;-2.00;99.90;;;;;;5015896;28;20084;-86
2022/12/18 09:45:57;;;;;;;14.43;7.10;;;-2.00;99.90;;;;;;5015997;28;20452;-86
2022/12/18 09:48:28;;;;;;;16.95;8.40;;;-2.00;99.90;;;;;;5016017;28;20029;-86
2022/12/18 09:51:00;;;;;;;17.55;8.48;;;-1.90;99.90;;;;;;5017201;28;20026;-86
2022/12/18 09:53:31;;;;;;;15.55;8.95;;;-1.80;99.90;;;;;;5016968;28;20096;-87
2022/12/18 09:55:57;;;;;;;;;;;-1.80;99.90;;;;;;5015962;28;20072;-87
2022/12/18 09:58:38;;;;;;;16.00;8.35;;;-1.80;99.90;;;;;;5014936;28;20421;-86
2022/12/18 10:01:09;;;;;;;;;;;-1.80;99.90;;;;;;5014079;28;20034;-86
2022/12/18 10:03:35;;;;;;;17.67;8.60;;;-1.80;99.90;;;;;;5006155;28;19909;-86
2022/12/18 10:06:12;;;;;;;17.90;9.15;;;-1.80;99.90;;;;;;5015346;28;20364;-86
2022/12/18 10:08:41;;;;;;;14.68;8.05;;;-1.70;99.90;;;;;;5015479;28;20026;-87
2022/12/18 10:11:53;;;;;;;16.80;7.82;;;-1.70;99.90;;;;;;5015517;28;20383;-86
2022/12/18 10:14:43;;;;;;;16.27;8.15;;;-1.70;99.90;;;;;;5015216;28;20203;-84
2022/12/18 10:17:25;;;;;;;14.73;7.78;;;-1.60;99.90;;;;;;5015699;28;20057;-84
2022/12/18 10:19:52;;;;;;;;;;;-1.60;99.90;;;;;;5017184;28;20025;-84
2022/12/18 10:22:43;;;;;;;13.88;7.53;;;-1.60;99.90;;;;;;5015482;28;19967;-85
2022/12/18 10:25:34;;;;;;;15.88;8.35;;;-1.50;99.90;;;;;;5015697;28;20113;-85
2022/12/18 10:28:12;;;;;;;16.52;8.02;;;-1.50;99.90;;;;;;5014999;28;20030;-85
2022/12/18 10:30:40;;;;;;;16.95;8.25;;;-1.50;99.90;;;;;;5015347;28;20050;-85
2022/12/18 10:33:05;;;;;;;16.40;8.70;;;-1.50;99.90;;;;;;5014567;28;20038;-85
2022/12/18 10:35:31;;;;;;;18.35;8.27;;;-1.40;99.90;;;;;;5014689;28;20088;-85
2022/12/18 10:38:06;;;;;;;16.27;8.75;;;-1.40;99.90;;;;;;4998708;28;20037;-85
2022/12/18 10:40:46;;;;;;;17.27;8.68;;;-1.30;99.90;;;;;;5015434;28;20045;-85
2022/12/18 10:43:14;;;;;;;19.50;9.35;;;-1.30;99.90;;;;;;5023287;28;20029;-85
2022/12/18 10:45:41;;;;;;;17.42;8.55;;;-1.30;99.90;;;;;;5009630;28;20029;-85
2022/12/18 10:48:22;;;;;;;16.10;8.48;;;-1.30;99.90;;;;;;5012901;28;20050;-85
2022/12/18 10:50:51;;;;;;;17.20;9.35;;;-1.20;99.90;;;;;;5009769;28;20092;-85
2022/12/18 10:53:24;;;;;;;16.20;8.13;;;-1.20;99.90;;;;;;5014479;28;20022;-85
2022/12/18 10:55:52;;;;;;;18.13;8.13;;;-1.10;99.90;;;;;;5013548;28;20022;-85
2022/12/18 10:58:42;;;;;;;19.05;9.75;;;-1.20;99.90;;;;;;5011153;28;20033;-85
2022/12/18 11:01:16;;;;;;;16.48;8.65;;;-1.10;99.90;;;;;;5006063;28;20026;-86
2022/12/18 11:03:45;;;;;;;18.33;9.02;;;-1.10;99.90;;;;;;5014027;28;20033;-86
2022/12/18 11:06:16;;;;;;;14.55;7.97;;;-1.00;99.90;;;;;;5011471;28;20053;-86
2022/12/18 11:08:44;;;;;;;16.58;9.05;;;-1.00;99.90;;;;;;5015632;28;20030;-85
2022/12/18 11:11:21;;;;;;;17.05;9.38;;;-0.90;99.90;;;;;;5014660;28;20048;-85
2022/12/18 11:14:14;;;;;;;16.48;8.40;;;-0.90;99.90;;;;;;5012471;28;20034;-85
2022/12/18 11:16:46;;;;;;;16.17;9.20;;;-0.90;99.90;;;;;;5012718;28;20030;-85
2022/12/18 11:19:30;;;;;;;21.33;10.65;;;-0.80;99.90;;;;;;5014970;28;20022;-86
2022/12/18 11:21:59;;;;;;;17.25;8.77;;;-0.80;99.90;;;;;;5012298;28;20114;-83
2022/12/18 11:24:32;;;;;;;17.75;9.35;;;-0.80;99.90;;;;;;5009225;28;20054;-83
2022/12/18 11:27:01;;;;;;;17.00;9.05;;;-0.80;99.90;;;;;;5002783;28;20022;-83
2022/12/18 11:29:35;;;;;;;15.32;8.13;;;-0.70;99.90;;;;;;5011580;28;20384;-83
2022/12/18 11:32:12;;;;;;;18.25;9.52;;;-0.70;99.90;;;;;;5008363;28;20511;-83
2022/12/18 11:34:40;;;;;;;17.90;9.38;;;-0.70;99.90;;;;;;5028828;28;20479;-83
2022/12/18 11:37:07;;;;;;;16.83;9.15;;;-0.70;99.90;;;;;;5010712;28;20573;-87
2022/12/18 11:39:49;;;;;;;17.63;9.10;;;-0.70;99.90;;;;;;4997798;28;20030;-88
2022/12/18 11:42:23;;;;;;;19.10;10.02;;;-0.70;99.90;;;;;;5012212;28;20033;-88
2022/12/18 11:44:52;;;;;;;18.13;9.73;;;-0.60;99.90;;;;;;5015166;28;20026;-88
2022/12/18 11:47:34;;;;;;;18.00;9.40;;;-0.60;99.90;;;;;;5009186;28;20378;-88
2022/12/18 11:50:02;;;;;;;17.60;9.05;;;-0.60;99.90;;;;;;5011822;28;20038;-88
2022/12/18 11:52:39;;;;;;;18.38;9.75;;;-0.50;99.90;;;;;;5011658;28;20069;-88
2022/12/18 11:55:15;;;;;;;16.60;9.73;;;-0.50;99.90;;;;;;5023935;23;20057;-86
2022/12/18 11:58:01;;;;;;;17.25;9.57;;;-0.50;99.90;;;;;;5016762;28;20028;-86
2022/12/18 12:00:30;;;;;;;18.55;9.70;;;-0.50;99.90;;;;;;5016912;28;20462;-86
2022/12/18 12:03:26;;;;;;;19.27;10.43;;;-0.40;99.90;;;;;;5000979;28;20033;-86
2022/12/18 12:06:10;;;;;;;19.42;9.60;;;-0.40;99.90;;;;;;5022918;28;20044;-86
2022/12/18 12:08:51;;;;;;;15.73;8.45;;;-0.30;99.90;;;;;;5017302;28;20029;-86
2022/12/18 12:11:45;;;;;;;15.88;8.98;;;-0.30;99.90;;;;;;5034378;28;20045;-88
2022/12/18 12:14:23;;;;;;;16.63;8.80;;;-0.30;99.90;;;;;;5016883;28;20116;-88
2022/12/18 12:16:53;;;;;;;18.05;9.35;;;-0.30;99.90;;;;;;5016911;28;20052;-87
2022/12/18 12:19:21;;;;;;;18.02;9.10;;;-0.20;99.90;;;;;;5016876;28;20105;-87
2022/12/18 12:21:53;;;;;;;18.23;9.55;;;-0.20;99.90;;;;;;5016798;28;20025;-87
2022/12/18 12:24:55;;;;;;;18.95;10.25;;;-0.20;99.90;;;;;;5016773;28;20505;-88
2022/12/18 12:27:59;;;;;;;19.08;10.20;;;-0.20;99.90;;;;;;5033953;28;20044;-83
2022/12/18 12:34:08;;;;;;;16.75;9.02;;;-0.10;99.90;;;;;;5034209;28;20482;-83
2022/12/18 12:36:44;;;;;;;17.52;9.38;;;-0.10;99.90;;;;;;5016059;28;20022;-82
2022/12/18 12:39:20;;;;;;;18.23;9.38;;;-0.10;99.90;;;;;;5016569;28;20021;-84
2022/12/18 12:44:48;;;;;;;19.48;10.63;;;0.00;99.90;;;;;;5006532;28;20092;-86
2022/12/18 12:47:23;;;;;;;22.02;10.85;;;0.00;99.90;;;;;;5016318;28;20021;-87
2022/12/18 12:49:50;;;;;;;21.55;10.88;;;0.00;99.90;;;;;;5016445;28;20025;-85
2022/12/18 12:52:43;;;;;;;19.02;9.63;;;0.00;99.90;;;;;;5016194;28;20022;-86
2022/12/18 12:55:29;;;;;;;17.42;9.73;;;0.00;99.90;;;;;;5016415;28;20033;-87
2022/12/18 12:58:12;;;;;;;16.38;9.20;;;0.00;99.90;;;;;;5016028;28;20095;-86